createdAt,value
2019-05-26T00:02:20.080Z,97.30
2019-05-26T00:04:50.735Z,97.40
2019-05-26T00:07:30.665Z,98.10
2019-05-26T00:09:55.321Z,98.00
2019-05-26T00:12:25.708Z,98.30
2019-05-26T00:14:55.767Z,98.50
2019-05-26T00:17:25.881Z,98.60
2019-05-26T00:19:59.726Z,98.70
2019-05-26T00:22:28.435Z,98.50
2019-05-26T00:24:59.780Z,98.60
2019-05-26T00:27:29.814Z,98.30
2019-05-26T00:30:02.507Z,98.20
2019-05-26T00:32:30.357Z,98.30
2019-05-26T00:35:01.025Z,98.50
2019-05-26T00:37:45.629Z,98.50
2019-05-26T00:40:17.724Z,98.20
2019-05-26T00:42:46.823Z,98.30
2019-05-26T00:45:17.753Z,98.00
2019-05-26T00:47:47.986Z,98.40
2019-05-26T00:50:18.798Z,98.60
2019-05-26T00:52:51.539Z,98.70
2019-05-26T00:55:22.788Z,98.90
2019-05-26T00:57:54.179Z,99.20
2019-05-26T01:00:41.896Z,99.30
2019-05-26T01:03:11.964Z,99.50
2019-05-26T01:05:42.183Z,99.60
2019-05-26T01:08:15.201Z,99.30
2019-05-26T01:10:51.115Z,99.30
2019-05-26T01:13:20.692Z,99.30
2019-05-26T01:15:50.938Z,99.20
2019-05-26T01:18:22.486Z,99.50
2019-05-26T01:20:53.921Z,99.40
2019-05-26T01:23:22.904Z,99.60
2019-05-26T01:25:53.279Z,99.50
2019-05-26T01:28:25.221Z,99.60
2019-05-26T01:33:43.414Z,99.90
2019-05-26T01:36:15.935Z,99.70
2019-05-26T01:38:46.321Z,99.60
2019-05-26T01:41:20.249Z,99.60
2019-05-26T01:43:55.354Z,99.60
2019-05-26T01:46:29.227Z,99.60
2019-05-26T01:49:02.475Z,99.70
2019-05-26T01:51:33.634Z,99.70
2019-05-26T01:54:03.326Z,99.80
2019-05-26T01:56:47.184Z,99.90
2019-05-26T01:59:06.530Z,99.90
2019-05-26T02:01:39.420Z,99.90
2019-05-26T02:04:15.373Z,99.90
2019-05-26T02:06:51.495Z,99.90
2019-05-26T02:09:22.821Z,99.90
2019-05-26T02:11:58.558Z,99.90
2019-05-26T02:14:32.513Z,99.90
2019-05-26T02:17:07.888Z,99.90
2019-05-26T02:19:43.269Z,99.90
2019-05-26T02:22:14.940Z,99.90
2019-05-26T02:24:44.650Z,99.90
2019-05-26T02:27:16.889Z,99.90
2019-05-26T02:29:51.685Z,99.90
2019-05-26T02:32:25.239Z,99.90
2019-05-26T02:34:59.156Z,99.90
2019-05-26T02:37:31.347Z,99.90
2019-05-26T02:40:06.026Z,99.90
2019-05-26T02:42:36.878Z,99.90
2019-05-26T02:45:19.112Z,99.90
2019-05-26T02:47:52.981Z,99.90
2019-05-26T02:50:25.924Z,99.90
2019-05-26T02:52:58.249Z,99.90
2019-05-26T02:55:29.942Z,99.90
2019-05-26T02:58:01.155Z,99.90
2019-05-26T03:00:45.177Z,99.90
2019-05-26T03:03:19.060Z,99.90
2019-05-26T03:05:50.047Z,99.90
2019-05-26T03:08:18.886Z,99.90
2019-05-26T03:10:53.103Z,99.90
2019-05-26T03:13:22.545Z,99.90
2019-05-26T03:16:02.267Z,99.90
2019-05-26T03:18:33.645Z,99.90
2019-05-26T03:21:04.553Z,99.90
2019-05-26T03:23:36.646Z,99.90
2019-05-26T03:26:15.411Z,99.90
2019-05-26T03:28:47.791Z,99.90
2019-05-26T03:31:22.121Z,99.90
2019-05-26T03:33:50.971Z,99.90
2019-05-26T03:36:20.046Z,99.90
2019-05-26T03:38:56.988Z,99.90
2019-05-26T03:41:25.967Z,99.90
2019-05-26T03:43:54.982Z,99.90
2019-05-26T03:46:35.000Z,99.90
2019-05-26T03:49:06.163Z,99.90
2019-05-26T03:51:42.505Z,99.90
2019-05-26T03:54:13.661Z,99.80
2019-05-26T03:56:45.849Z,99.40
2019-05-26T03:59:17.723Z,98.90
2019-05-26T04:01:49.800Z,98.00
2019-05-26T04:04:38.492Z,98.00
2019-05-26T04:07:12.421Z,97.20
2019-05-26T04:10:02.630Z,97.00
2019-05-26T04:12:20.671Z,97.40
2019-05-26T04:18:02.105Z,96.60
2019-05-26T04:20:36.773Z,96.20
2019-05-26T04:23:08.861Z,95.60
2019-05-26T04:25:45.550Z,95.70
2019-05-26T04:28:19.574Z,95.20
2019-05-26T04:30:52.914Z,95.00
2019-05-26T04:33:22.393Z,94.60
2019-05-26T04:35:57.373Z,93.80
2019-05-26T04:38:29.835Z,94.20
2019-05-26T04:41:10.929Z,94.50
2019-05-26T04:43:47.835Z,93.40
2019-05-26T04:46:29.725Z,92.30
2019-05-26T04:49:04.209Z,92.50
2019-05-26T04:51:44.734Z,92.00
2019-05-26T04:54:15.608Z,91.80
2019-05-26T04:56:57.188Z,91.80
2019-05-26T04:59:28.821Z,91.30
2019-05-26T05:02:00.785Z,90.20
2019-05-26T05:04:31.470Z,87.60
2019-05-26T05:07:05.701Z,87.30
2019-05-26T05:09:36.875Z,88.80
2019-05-26T05:12:12.418Z,88.30
2019-05-26T05:14:49.053Z,87.00
2019-05-26T05:17:22.336Z,87.60
2019-05-26T05:19:55.212Z,89.00
2019-05-26T05:22:26.740Z,87.70
2019-05-26T05:25:00.127Z,88.10
2019-05-26T05:27:39.262Z,87.00
2019-05-26T05:30:16.508Z,88.20
2019-05-26T05:32:50.357Z,89.60
2019-05-26T05:35:20.434Z,89.20
2019-05-26T05:37:52.284Z,87.10
2019-05-26T05:40:21.999Z,87.40
2019-05-26T05:42:58.141Z,86.00
2019-05-26T05:45:26.443Z,86.90
2019-05-26T05:47:55.880Z,84.50
2019-05-26T05:50:28.605Z,83.30
2019-05-26T05:53:00.518Z,81.00
2019-05-26T05:55:30.610Z,76.30
2019-05-26T05:58:01.845Z,74.90
2019-05-26T06:00:31.677Z,73.70
2019-05-26T06:03:02.069Z,72.80
2019-05-26T06:05:31.533Z,72.70
2019-05-26T06:08:10.365Z,71.20
2019-05-26T06:10:44.721Z,68.10
2019-05-26T06:13:14.001Z,69.00
2019-05-26T06:15:47.276Z,67.50
2019-05-26T06:18:21.140Z,67.40
2019-05-26T06:20:50.997Z,67.80
2019-05-26T06:23:22.571Z,67.10
2019-05-26T06:25:52.865Z,68.70
2019-05-26T06:28:24.174Z,69.40
2019-05-26T06:30:52.933Z,66.90
2019-05-26T06:33:25.079Z,64.80
2019-05-26T06:36:09.510Z,63.30
2019-05-26T06:38:26.948Z,63.40
2019-05-26T06:40:55.609Z,66.80
2019-05-26T06:43:27.273Z,67.30
2019-05-26T06:45:58.539Z,67.00
2019-05-26T06:48:27.562Z,66.80
2019-05-26T06:50:57.305Z,67.30
2019-05-26T06:53:31.312Z,68.70
2019-05-26T06:56:04.698Z,71.10
2019-05-26T06:58:33.426Z,68.30
2019-05-26T07:01:12.970Z,65.60
2019-05-26T07:06:35.677Z,65.10
2019-05-26T07:09:07.517Z,64.50
2019-05-26T07:11:54.300Z,64.70
2019-05-26T07:14:15.861Z,64.10
2019-05-26T07:16:44.688Z,64.80
2019-05-26T07:19:14.628Z,64.60
2019-05-26T07:21:46.213Z,63.10
2019-05-26T07:24:16.409Z,59.20
2019-05-26T07:26:47.066Z,55.40
2019-05-26T07:29:15.839Z,51.60
2019-05-26T07:31:48.182Z,51.60
2019-05-26T07:34:18.427Z,56.10
2019-05-26T07:36:47.933Z,55.80
2019-05-26T07:39:18.918Z,55.10
2019-05-26T07:41:48.684Z,55.30
2019-05-26T07:44:18.743Z,54.70
2019-05-26T07:46:51.448Z,52.30
2019-05-26T07:49:20.162Z,53.40
2019-05-26T07:51:55.088Z,55.30
2019-05-26T07:54:27.257Z,56.60
2019-05-26T07:56:56.073Z,57.50
2019-05-26T07:59:30.907Z,56.80
2019-05-26T08:02:00.804Z,59.40
2019-05-26T08:04:29.848Z,58.10
2019-05-26T08:07:01.696Z,57.50
2019-05-26T08:09:34.315Z,57.80
2019-05-26T08:12:07.160Z,57.80
2019-05-26T08:14:38.136Z,59.10
2019-05-26T08:17:12.980Z,59.50
2019-05-26T08:19:47.430Z,58.50
2019-05-26T08:22:26.150Z,57.90
2019-05-26T08:24:57.732Z,58.20
2019-05-26T08:27:30.186Z,61.70
2019-05-26T08:30:02.278Z,60.10
2019-05-26T08:32:36.440Z,61.30
2019-05-26T08:35:16.643Z,61.10
2019-05-26T08:37:46.752Z,57.00
2019-05-26T08:40:18.306Z,57.80
2019-05-26T08:42:50.437Z,54.80
2019-05-26T08:45:23.612Z,52.50
2019-05-26T08:47:52.589Z,52.70
2019-05-26T08:50:24.358Z,54.30
2019-05-26T08:52:53.213Z,55.30
2019-05-26T08:55:25.316Z,54.10
2019-05-26T08:58:00.107Z,54.60
2019-05-26T09:00:33.972Z,54.10
2019-05-26T09:03:08.146Z,52.20
2019-05-26T09:05:38.676Z,52.70
2019-05-26T09:08:08.309Z,51.00
2019-05-26T09:10:44.961Z,51.70
2019-05-26T09:13:20.047Z,52.50
2019-05-26T09:15:46.338Z,52.30
2019-05-26T09:18:18.099Z,53.50
2019-05-26T09:20:48.004Z,52.60
2019-05-26T09:23:21.498Z,51.60
2019-05-26T09:25:52.851Z,50.80
2019-05-26T09:28:22.647Z,52.30
2019-05-26T09:30:55.258Z,53.30
2019-05-26T09:33:26.425Z,53.50
2019-05-26T09:35:57.531Z,53.90
2019-05-26T09:38:28.600Z,53.80
2019-05-26T09:40:57.138Z,52.90
2019-05-26T09:43:27.640Z,51.50
2019-05-26T09:45:57.205Z,51.40
2019-05-26T09:48:27.608Z,50.80
2019-05-26T09:50:56.172Z,50.30
2019-05-26T09:53:30.919Z,51.70
2019-05-26T09:55:59.720Z,50.40
2019-05-26T09:58:28.505Z,51.10
2019-05-26T10:00:58.944Z,52.90
2019-05-26T10:03:27.934Z,51.90
2019-05-26T10:05:56.724Z,52.00
2019-05-26T10:08:35.187Z,50.70
2019-05-26T10:11:12.660Z,51.20
2019-05-26T10:13:41.216Z,50.20
2019-05-26T10:16:10.509Z,50.60
2019-05-26T10:18:42.519Z,50.70
2019-05-26T10:21:12.620Z,50.00
2019-05-26T10:23:41.374Z,50.70
2019-05-26T10:26:10.983Z,51.10
2019-05-26T10:28:40.911Z,49.50
2019-05-26T10:31:09.975Z,49.70
2019-05-26T10:33:42.704Z,50.50
2019-05-26T10:36:11.973Z,50.30
2019-05-26T10:38:41.373Z,52.40
2019-05-26T10:41:10.799Z,53.30
2019-05-26T10:43:47.366Z,54.00
2019-05-26T10:46:10.939Z,55.60
2019-05-26T10:48:44.181Z,53.20
2019-05-26T10:51:14.343Z,52.80
2019-05-26T10:53:43.083Z,52.90
2019-05-26T10:56:12.001Z,52.40
2019-05-26T10:58:43.015Z,53.30
2019-05-26T11:01:15.195Z,53.10
2019-05-26T11:03:46.554Z,53.00
2019-05-26T11:06:15.394Z,51.60
2019-05-26T11:08:44.414Z,52.20
2019-05-26T11:11:13.071Z,54.10
2019-05-26T11:13:43.320Z,51.40
2019-05-26T11:16:15.192Z,51.40
2019-05-26T11:18:44.025Z,51.90
2019-05-26T11:21:13.401Z,51.80
2019-05-26T11:23:43.650Z,51.90
2019-05-26T11:26:12.475Z,52.00
2019-05-26T11:28:46.038Z,52.90
2019-05-26T11:31:14.776Z,53.90
2019-05-26T11:33:46.772Z,50.30
2019-05-26T11:36:16.953Z,51.10
2019-05-26T11:38:47.044Z,51.00
2019-05-26T11:41:15.683Z,51.40
2019-05-26T11:43:46.836Z,51.20
2019-05-26T11:46:16.975Z,52.40
2019-05-26T11:48:48.655Z,50.70
2019-05-26T11:51:19.527Z,50.70
2019-05-26T11:53:48.706Z,51.20
2019-05-26T11:56:17.464Z,52.00
2019-05-26T11:58:46.630Z,53.80
2019-05-26T12:01:15.342Z,51.60
2019-05-26T12:03:45.315Z,50.70
2019-05-26T12:06:14.085Z,50.20
2019-05-26T12:08:44.143Z,50.20
2019-05-26T12:11:15.185Z,52.10
2019-05-26T12:13:45.935Z,50.80
2019-05-26T12:16:16.984Z,51.50
2019-05-26T12:18:48.530Z,51.10
2019-05-26T12:21:18.754Z,49.40
2019-05-26T12:23:54.923Z,49.80
2019-05-26T12:26:23.859Z,49.70
2019-05-26T12:28:52.989Z,50.00
2019-05-26T12:31:22.269Z,50.50
2019-05-26T12:34:03.057Z,49.50
2019-05-26T12:36:42.102Z,49.40
2019-05-26T12:39:15.612Z,49.70
2019-05-26T12:41:46.463Z,50.10
2019-05-26T12:47:06.267Z,49.50
2019-05-26T12:49:40.344Z,48.90
2019-05-26T12:52:17.434Z,49.50
2019-05-26T12:54:48.583Z,48.60
2019-05-26T12:57:20.358Z,48.70
2019-05-26T12:59:54.535Z,48.00
2019-05-26T13:02:21.932Z,48.70
2019-05-26T13:04:56.234Z,49.70
2019-05-26T13:07:26.907Z,49.40
2019-05-26T13:09:58.850Z,48.60
2019-05-26T13:12:33.080Z,49.70
2019-05-26T13:15:06.188Z,50.10
2019-05-26T13:17:36.807Z,50.00
2019-05-26T13:20:11.243Z,48.70
2019-05-26T13:22:41.321Z,49.60
2019-05-26T13:25:14.168Z,50.20
2019-05-26T13:27:48.371Z,49.60
2019-05-26T13:30:22.649Z,48.70
2019-05-26T13:32:52.488Z,49.50
2019-05-26T13:35:22.865Z,49.10
2019-05-26T13:37:53.657Z,49.80
2019-05-26T13:40:24.397Z,49.30
2019-05-26T13:42:55.666Z,50.10
2019-05-26T13:45:26.931Z,49.90
2019-05-26T13:47:59.812Z,50.20
2019-05-26T13:50:32.519Z,50.20
2019-05-26T13:53:09.772Z,49.90
2019-05-26T13:55:42.156Z,49.90
2019-05-26T13:58:12.958Z,49.70
2019-05-26T14:00:49.893Z,50.60
2019-05-26T14:03:19.503Z,49.60
2019-05-26T14:05:51.869Z,50.50
2019-05-26T14:08:23.312Z,50.00
2019-05-26T14:10:56.096Z,50.40
2019-05-26T14:13:29.631Z,49.70
2019-05-26T14:16:03.325Z,49.80
2019-05-26T14:18:46.449Z,51.10
2019-05-26T14:21:20.162Z,50.00
2019-05-26T14:23:50.885Z,49.20
2019-05-26T14:26:21.006Z,49.90
2019-05-26T14:28:52.961Z,50.80
2019-05-26T14:31:24.289Z,51.10
2019-05-26T14:33:54.701Z,49.60
2019-05-26T14:36:26.329Z,49.50
2019-05-26T14:39:00.959Z,49.00
2019-05-26T14:41:30.190Z,49.80
2019-05-26T14:44:02.321Z,49.20
2019-05-26T14:46:34.793Z,49.10
2019-05-26T14:49:06.984Z,49.60
2019-05-26T14:51:35.767Z,50.30
2019-05-26T14:54:08.966Z,49.80
2019-05-26T14:56:38.105Z,49.30
2019-05-26T14:59:12.934Z,48.70
2019-05-26T15:01:44.796Z,49.30
2019-05-26T15:04:19.392Z,48.20
2019-05-26T15:06:49.216Z,48.20
2019-05-26T15:09:25.240Z,48.30
2019-05-26T15:11:51.320Z,48.20
2019-05-26T15:14:22.668Z,47.90
2019-05-26T15:17:01.899Z,48.00
2019-05-26T15:19:37.088Z,47.90
2019-05-26T15:22:08.487Z,47.50
2019-05-26T15:24:42.711Z,47.30
2019-05-26T15:27:13.855Z,47.50
2019-05-26T15:29:46.023Z,48.30
2019-05-26T15:32:19.288Z,48.10
2019-05-26T15:34:53.407Z,48.00
2019-05-26T15:37:24.995Z,48.20
2019-05-26T15:39:59.696Z,48.70
2019-05-26T15:42:37.225Z,48.20
2019-05-26T15:45:17.475Z,48.30
2019-05-26T15:47:52.592Z,49.30
2019-05-26T15:50:22.459Z,49.10
2019-05-26T15:52:54.541Z,49.00
2019-05-26T15:55:25.335Z,48.60
2019-05-26T15:57:54.053Z,49.10
2019-05-26T16:00:29.634Z,48.40
2019-05-26T16:03:00.281Z,47.60
2019-05-26T16:05:33.247Z,47.80
2019-05-26T16:08:03.674Z,48.00
2019-05-26T16:10:33.705Z,48.50
2019-05-26T16:13:02.518Z,47.50
2019-05-26T16:15:37.076Z,48.50
2019-05-26T16:18:10.935Z,48.50
2019-05-26T16:20:42.411Z,48.60
2019-05-26T16:23:13.888Z,48.90
2019-05-26T16:25:48.899Z,49.20
2019-05-26T16:28:18.606Z,49.40
2019-05-26T16:30:51.045Z,49.40
2019-05-26T16:33:21.010Z,49.80
2019-05-26T16:35:56.815Z,49.90
2019-05-26T16:38:21.721Z,49.90
2019-05-26T16:40:55.750Z,49.70
2019-05-26T16:43:25.200Z,50.20
2019-05-26T16:45:56.504Z,51.00
2019-05-26T16:48:25.313Z,50.40
2019-05-26T16:50:55.902Z,50.00
2019-05-26T16:53:25.073Z,50.80
2019-05-26T16:55:56.041Z,50.30
2019-05-26T16:58:27.349Z,50.40
2019-05-26T17:00:59.955Z,50.90
2019-05-26T17:03:30.444Z,51.00
2019-05-26T17:06:07.942Z,51.60
2019-05-26T17:08:37.604Z,51.30
2019-05-26T17:11:07.172Z,51.20
2019-05-26T17:13:40.315Z,51.30
2019-05-26T17:16:11.652Z,51.90
2019-05-26T17:18:46.353Z,51.80
2019-05-26T17:21:17.930Z,51.80
2019-05-26T17:23:47.323Z,52.60
2019-05-26T17:26:16.056Z,52.50
2019-05-26T17:28:47.690Z,52.30
2019-05-26T17:31:18.976Z,52.50
2019-05-26T17:33:59.494Z,52.70
2019-05-26T17:36:30.254Z,52.90
2019-05-26T17:39:04.659Z,53.00
2019-05-26T17:41:37.450Z,53.30
2019-05-26T17:44:06.700Z,53.20
2019-05-26T17:46:44.590Z,53.10
2019-05-26T17:49:13.762Z,53.90
2019-05-26T17:51:45.381Z,54.10
2019-05-26T17:54:21.491Z,54.00
2019-05-26T17:56:51.049Z,54.50
2019-05-26T17:59:22.887Z,54.40
2019-05-26T18:01:54.483Z,54.50
2019-05-26T18:04:35.670Z,54.60
2019-05-26T18:07:06.889Z,55.30
2019-05-26T18:09:43.555Z,54.90
2019-05-26T18:12:13.624Z,55.70
2019-05-26T18:14:42.391Z,56.30
2019-05-26T18:17:12.720Z,55.20
2019-05-26T18:19:45.184Z,55.90
2019-05-26T18:22:14.673Z,55.70
2019-05-26T18:24:55.043Z,55.80
2019-05-26T18:27:14.925Z,56.00
2019-05-26T18:29:46.558Z,56.40
2019-05-26T18:32:23.933Z,56.40
2019-05-26T18:34:55.963Z,56.70
2019-05-26T18:37:29.153Z,56.90
2019-05-26T18:40:01.500Z,57.00
2019-05-26T18:42:33.609Z,57.30
2019-05-26T18:45:06.327Z,57.90
2019-05-26T18:47:36.587Z,58.30
2019-05-26T18:50:13.357Z,58.50
2019-05-26T18:52:49.442Z,59.30
2019-05-26T18:55:28.407Z,60.30
2019-05-26T18:58:01.351Z,61.00
2019-05-26T19:00:34.424Z,61.70
2019-05-26T19:03:06.948Z,61.60
2019-05-26T19:05:38.500Z,61.90
2019-05-26T19:08:08.967Z,61.70
2019-05-26T19:10:40.203Z,61.90
2019-05-26T19:13:11.673Z,62.10
2019-05-26T19:15:42.303Z,62.80
2019-05-26T19:18:20.091Z,63.70
2019-05-26T19:20:46.951Z,64.00
2019-05-26T19:23:17.994Z,64.30
2019-05-26T19:25:50.441Z,65.00
2019-05-26T19:28:27.878Z,65.90
2019-05-26T19:31:01.210Z,67.10
2019-05-26T19:33:32.742Z,68.60
2019-05-26T19:36:17.465Z,68.80
2019-05-26T19:38:43.055Z,69.90
2019-05-26T19:41:12.887Z,71.30
2019-05-26T19:43:48.573Z,72.60
2019-05-26T19:46:19.900Z,74.30
2019-05-26T19:51:42.972Z,76.10
2019-05-26T19:54:16.099Z,78.00
2019-05-26T19:56:50.516Z,79.00
2019-05-26T19:59:24.270Z,79.90
2019-05-26T20:01:55.238Z,80.30
2019-05-26T20:04:25.680Z,79.80
2019-05-26T20:06:56.881Z,80.30
2019-05-26T20:09:25.571Z,80.50
2019-05-26T20:11:56.531Z,81.60
2019-05-26T20:14:29.346Z,82.60
2019-05-26T20:16:58.765Z,83.10
2019-05-26T20:19:28.374Z,83.40
2019-05-26T20:21:59.304Z,83.90
2019-05-26T20:24:29.035Z,83.20
2019-05-26T20:26:57.914Z,84.00
2019-05-26T20:29:28.054Z,84.50
2019-05-26T20:32:01.716Z,83.90
2019-05-26T20:34:32.439Z,84.80
2019-05-26T20:37:06.984Z,86.30
2019-05-26T20:39:39.011Z,87.10
2019-05-26T20:42:11.622Z,87.80
2019-05-26T20:44:54.593Z,89.20
2019-05-26T20:47:19.736Z,90.30
2019-05-26T20:49:51.427Z,91.00
2019-05-26T20:52:20.291Z,91.50
2019-05-26T20:55:00.044Z,91.70
2019-05-26T20:57:30.357Z,92.30
2019-05-26T21:00:00.874Z,92.70
2019-05-26T21:02:36.423Z,93.00
2019-05-26T21:05:09.933Z,93.20
2019-05-26T21:10:32.806Z,93.80
2019-05-26T21:13:04.428Z,94.80
2019-05-26T21:15:36.140Z,94.80
2019-05-26T21:18:12.008Z,95.10
2019-05-26T21:20:47.085Z,95.10
2019-05-26T21:23:16.735Z,94.90
2019-05-26T21:25:49.244Z,94.50
2019-05-26T21:28:27.200Z,94.40
2019-05-26T21:31:00.829Z,94.20
2019-05-26T21:33:34.321Z,93.80
2019-05-26T21:36:10.691Z,93.40
2019-05-26T21:38:39.493Z,93.30
2019-05-26T21:41:11.873Z,93.00
2019-05-26T21:43:49.091Z,92.90
2019-05-26T21:46:17.900Z,92.90
2019-05-26T21:48:51.459Z,92.50
2019-05-26T21:51:23.649Z,92.30
2019-05-26T21:53:54.011Z,92.20
2019-05-26T21:56:24.689Z,92.10
2019-05-26T21:58:59.036Z,91.90
2019-05-26T22:01:25.254Z,91.80
2019-05-26T22:04:00.899Z,91.50
2019-05-26T22:06:29.831Z,91.40
2019-05-26T22:09:01.537Z,91.30
2019-05-26T22:11:35.200Z,91.30
2019-05-26T22:14:17.749Z,91.50
2019-05-26T22:16:51.811Z,91.80
2019-05-26T22:19:39.337Z,91.70
2019-05-26T22:24:59.074Z,91.70
2019-05-26T22:27:31.448Z,91.70
2019-05-26T22:30:04.735Z,91.80
2019-05-26T22:32:33.535Z,91.80
2019-05-26T22:35:05.179Z,91.90
2019-05-26T22:37:34.171Z,91.90
2019-05-26T22:40:09.274Z,92.60
2019-05-26T22:42:43.908Z,92.20
2019-05-26T22:45:14.504Z,92.40
2019-05-26T22:47:43.121Z,92.70
2019-05-26T22:50:15.733Z,92.30
2019-05-26T22:52:50.371Z,92.10
2019-05-26T22:55:23.410Z,92.00
2019-05-26T22:57:55.332Z,91.90
2019-05-26T23:00:30.737Z,91.80
2019-05-26T23:03:03.513Z,91.60
2019-05-26T23:05:32.211Z,91.50
2019-05-26T23:08:01.987Z,91.30
2019-05-26T23:10:32.249Z,91.10
2019-05-26T23:13:03.032Z,90.90
2019-05-26T23:15:33.726Z,91.00
2019-05-26T23:18:07.125Z,90.80
2019-05-26T23:20:37.036Z,90.90
2019-05-26T23:23:08.434Z,90.80
2019-05-26T23:25:39.939Z,91.00
2019-05-26T23:28:09.030Z,90.60
2019-05-26T23:30:38.030Z,90.60
2019-05-26T23:33:10.591Z,90.40
2019-05-26T23:35:42.364Z,90.40
2019-05-26T23:38:14.041Z,90.40
2019-05-26T23:40:45.221Z,90.50
2019-05-26T23:43:16.270Z,90.70
2019-05-26T23:45:52.052Z,90.70
2019-05-26T23:48:24.363Z,90.90
2019-05-26T23:50:56.292Z,91.20
2019-05-26T23:53:29.107Z,91.30
2019-05-26T23:55:59.184Z,91.50
2019-05-26T23:58:29.767Z,91.70
